createdAt,value
2023-01-29T00:00:10.286Z,15.00
2023-01-29T00:02:41.578Z,14.25
2023-01-29T00:05:26.413Z,13.60
2023-01-29T00:07:55.755Z,22.90
2023-01-29T00:10:26.269Z,15.38
2023-01-29T00:12:54.636Z,15.02
2023-01-29T00:15:23.408Z,14.93
2023-01-29T00:17:51.769Z,13.27
2023-01-29T00:20:20.739Z,12.63
2023-01-29T00:22:48.938Z,14.30
2023-01-29T00:25:17.418Z,15.65
2023-01-29T00:27:47.222Z,14.23
2023-01-29T00:30:20.080Z,16.25
2023-01-29T00:32:48.511Z,13.40
2023-01-29T00:35:16.997Z,14.02
2023-01-29T00:37:45.461Z,20.23
2023-01-29T00:40:14.309Z,17.10
2023-01-29T00:43:00.455Z,21.38
2023-01-29T00:45:30.407Z,13.90
2023-01-29T00:47:58.932Z,17.80
2023-01-29T00:50:27.206Z,16.17
2023-01-29T00:52:55.730Z,16.38
2023-01-29T00:55:24.367Z,13.77
2023-01-29T00:57:52.437Z,18.65
2023-01-29T01:00:22.331Z,14.93
2023-01-29T01:03:06.152Z,15.43
2023-01-29T01:05:34.784Z,13.52
2023-01-29T01:08:03.113Z,13.85
2023-01-29T01:10:32.354Z,13.57
2023-01-29T01:13:02.327Z,9.88
2023-01-29T01:15:33.319Z,23.63
2023-01-29T01:18:03.931Z,24.65
2023-01-29T01:20:35.004Z,15.30
2023-01-29T01:23:04.619Z,17.40
2023-01-29T01:25:33.606Z,16.85
2023-01-29T01:28:02.248Z,13.00
2023-01-29T01:30:33.702Z,13.70
2023-01-29T01:33:03.847Z,13.85
2023-01-29T01:35:32.517Z,14.52
2023-01-29T01:38:00.932Z,16.80
2023-01-29T01:40:28.904Z,14.02
2023-01-29T01:42:59.600Z,14.43
2023-01-29T01:45:30.607Z,18.70
2023-01-29T01:48:02.508Z,17.27
2023-01-29T01:50:39.484Z,11.70
2023-01-29T01:53:10.431Z,12.93
2023-01-29T01:55:44.409Z,14.07
2023-01-29T01:58:20.829Z,16.27
2023-01-29T02:00:49.557Z,15.60
2023-01-29T02:03:38.571Z,17.85
2023-01-29T02:06:27.304Z,15.88
2023-01-29T02:09:19.102Z,17.50
2023-01-29T02:11:47.333Z,16.63
2023-01-29T02:14:17.161Z,28.77
2023-01-29T02:16:45.319Z,18.90
2023-01-29T02:19:22.973Z,16.73
2023-01-29T02:22:11.672Z,21.00
2023-01-29T02:25:15.427Z,19.95
2023-01-29T02:28:24.101Z,17.80
2023-01-29T02:31:04.309Z,16.25
2023-01-29T02:33:43.124Z,12.18
2023-01-29T02:36:20.930Z,13.13
2023-01-29T02:38:57.353Z,17.02
2023-01-29T02:41:31.460Z,15.27
2023-01-29T02:44:06.851Z,17.38
2023-01-29T02:46:41.514Z,19.42
2023-01-29T02:49:16.655Z,15.43
2023-01-29T02:51:51.357Z,17.02
2023-01-29T02:54:25.737Z,13.43
2023-01-29T02:56:59.144Z,12.50
2023-01-29T02:59:34.307Z,15.13
2023-01-29T03:02:08.303Z,17.20
2023-01-29T03:04:45.991Z,14.15
2023-01-29T03:07:41.308Z,13.50
2023-01-29T03:10:17.552Z,13.32
2023-01-29T03:12:51.214Z,12.63
2023-01-29T03:15:25.289Z,13.93
2023-01-29T03:18:27.962Z,14.55
2023-01-29T03:21:26.407Z,15.32
2023-01-29T03:24:13.886Z,15.95
2023-01-29T03:27:02.660Z,21.77
2023-01-29T03:29:55.626Z,14.65
2023-01-29T03:32:31.094Z,16.30
2023-01-29T03:35:06.461Z,11.25
2023-01-29T03:37:39.209Z,16.40
2023-01-29T03:40:10.487Z,13.18
2023-01-29T03:42:55.405Z,19.15
2023-01-29T03:45:32.404Z,15.15
2023-01-29T03:48:09.513Z,17.65
2023-01-29T03:50:46.702Z,12.50
2023-01-29T03:53:23.889Z,16.55
2023-01-29T03:55:58.330Z,16.85
2023-01-29T03:58:37.343Z,12.63
2023-01-29T04:01:12.237Z,15.18
2023-01-29T04:03:44.444Z,16.65
2023-01-29T04:06:20.028Z,19.02
2023-01-29T04:09:03.401Z,16.95
2023-01-29T04:11:35.571Z,17.98
2023-01-29T04:14:03.943Z,16.52
2023-01-29T04:16:37.734Z,18.83
2023-01-29T04:19:26.464Z,17.45
2023-01-29T04:22:03.357Z,19.25
2023-01-29T04:24:32.372Z,22.48
2023-01-29T04:27:13.404Z,19.73
2023-01-29T04:29:56.262Z,16.52
2023-01-29T04:32:29.814Z,17.92
2023-01-29T04:35:02.962Z,12.88
2023-01-29T04:37:41.684Z,12.82
2023-01-29T04:40:21.220Z,11.50
2023-01-29T04:42:55.423Z,13.85
2023-01-29T04:45:33.540Z,22.50
2023-01-29T04:48:11.469Z,16.63
2023-01-29T04:50:43.416Z,14.25
2023-01-29T04:53:20.130Z,18.35
2023-01-29T04:55:52.909Z,22.45
2023-01-29T04:58:27.947Z,21.73
2023-01-29T05:00:56.578Z,19.55
2023-01-29T05:03:27.846Z,15.35
2023-01-29T05:05:58.574Z,23.77
2023-01-29T05:08:31.747Z,21.48
2023-01-29T05:11:01.759Z,21.58
2023-01-29T05:13:31.979Z,17.98
2023-01-29T05:16:04.709Z,18.80
2023-01-29T05:18:33.313Z,21.73
2023-01-29T05:21:07.146Z,17.90
2023-01-29T05:23:37.062Z,17.40
2023-01-29T05:26:06.414Z,19.30
2023-01-29T05:28:33.912Z,23.65
2023-01-29T05:31:02.010Z,21.77
2023-01-29T05:33:31.907Z,20.27
2023-01-29T05:36:01.112Z,18.48
2023-01-29T05:38:29.173Z,23.33
2023-01-29T05:41:01.129Z,24.13
2023-01-29T05:43:29.241Z,19.42
2023-01-29T05:45:59.386Z,21.67
2023-01-29T05:48:30.074Z,25.48
2023-01-29T05:51:01.823Z,19.60
2023-01-29T05:53:30.517Z,21.17
2023-01-29T05:56:02.484Z,17.52
2023-01-29T05:58:32.240Z,18.23
2023-01-29T06:01:09.781Z,22.70
2023-01-29T06:03:38.027Z,27.35
2023-01-29T06:06:06.620Z,14.38
2023-01-29T06:08:34.909Z,17.48
2023-01-29T06:11:05.388Z,20.00
2023-01-29T06:13:33.501Z,17.85
2023-01-29T06:16:01.634Z,15.55
2023-01-29T06:18:29.892Z,16.10
2023-01-29T06:21:02.030Z,18.20
2023-01-29T06:23:30.696Z,22.50
2023-01-29T06:26:01.627Z,18.67
2023-01-29T06:28:31.975Z,31.55
2023-01-29T06:31:12.014Z,15.65
2023-01-29T06:33:48.978Z,16.35
2023-01-29T06:36:17.112Z,18.88
2023-01-29T06:38:45.379Z,19.50
2023-01-29T06:41:17.499Z,20.48
2023-01-29T06:43:48.310Z,20.63
2023-01-29T06:46:16.633Z,20.58
2023-01-29T06:48:45.097Z,20.58
2023-01-29T06:51:13.769Z,24.65
2023-01-29T06:53:44.116Z,17.30
2023-01-29T06:56:14.239Z,16.90
2023-01-29T06:58:43.658Z,22.05
2023-01-29T07:01:29.290Z,19.25
2023-01-29T07:04:03.048Z,15.73
2023-01-29T07:06:31.906Z,17.70
2023-01-29T07:09:00.381Z,21.65
2023-01-29T07:11:28.397Z,22.05
2023-01-29T07:13:56.786Z,17.88
2023-01-29T07:16:27.404Z,20.67
2023-01-29T07:18:55.473Z,20.50
2023-01-29T07:21:23.923Z,27.05
2023-01-29T07:23:52.194Z,30.48
2023-01-29T07:26:20.982Z,37.03
2023-01-29T07:28:49.551Z,28.58
2023-01-29T07:31:17.979Z,24.50
2023-01-29T07:33:48.262Z,30.77
2023-01-29T07:36:16.341Z,25.35
2023-01-29T07:38:44.535Z,28.77
2023-01-29T07:41:13.594Z,25.17
2023-01-29T07:43:46.083Z,20.70
2023-01-29T07:46:14.535Z,24.85
2023-01-29T07:48:42.693Z,33.38
2023-01-29T07:51:12.665Z,31.15
2023-01-29T07:53:40.737Z,30.17
2023-01-29T07:56:09.547Z,22.48
2023-01-29T07:58:37.927Z,20.27
2023-01-29T08:01:12.146Z,22.67
2023-01-29T08:04:06.275Z,26.17
2023-01-29T08:06:35.975Z,23.65
2023-01-29T08:09:04.368Z,19.40
2023-01-29T08:11:32.604Z,16.17
2023-01-29T08:14:00.708Z,20.60
2023-01-29T08:16:28.989Z,16.10
2023-01-29T08:18:57.169Z,21.63
2023-01-29T08:21:25.512Z,18.17
2023-01-29T08:23:55.132Z,24.77
2023-01-29T08:26:23.364Z,17.27
2023-01-29T08:28:51.429Z,19.30
2023-01-29T08:31:21.232Z,17.70
2023-01-29T08:33:49.825Z,13.25
2023-01-29T08:36:18.136Z,19.27
2023-01-29T08:38:46.366Z,14.98
2023-01-29T08:41:16.153Z,15.82
2023-01-29T08:43:44.287Z,20.92
2023-01-29T08:46:12.339Z,16.70
2023-01-29T08:48:41.204Z,17.75
2023-01-29T08:51:10.246Z,18.27
2023-01-29T08:53:38.376Z,14.75
2023-01-29T08:56:07.177Z,18.05
2023-01-29T08:58:37.045Z,17.25
2023-01-29T09:01:09.590Z,15.23
2023-01-29T09:03:40.946Z,14.27
2023-01-29T09:06:10.994Z,19.52
2023-01-29T09:08:39.713Z,18.92
2023-01-29T09:11:07.999Z,18.85
2023-01-29T09:13:38.021Z,18.40
2023-01-29T09:16:06.707Z,20.38
2023-01-29T09:18:34.853Z,18.92
2023-01-29T09:21:03.663Z,16.15
2023-01-29T09:23:31.705Z,20.20
2023-01-29T09:26:01.367Z,22.55
2023-01-29T09:28:30.099Z,20.58
2023-01-29T09:31:02.225Z,20.08
2023-01-29T09:33:32.712Z,18.67
2023-01-29T09:36:00.995Z,16.27
2023-01-29T09:38:29.089Z,19.52
2023-01-29T09:41:05.379Z,25.27
2023-01-29T09:43:44.133Z,21.85
2023-01-29T09:46:22.158Z,19.67
2023-01-29T09:49:03.188Z,18.30
2023-01-29T09:51:36.666Z,22.25
2023-01-29T09:54:17.408Z,18.88
2023-01-29T09:56:47.741Z,18.35
2023-01-29T09:59:20.163Z,24.60
2023-01-29T10:02:00.628Z,20.88
2023-01-29T10:04:50.872Z,18.27
2023-01-29T10:07:35.441Z,20.20
2023-01-29T10:10:19.864Z,16.23
2023-01-29T10:12:59.878Z,20.42
2023-01-29T10:15:42.660Z,23.27
2023-01-29T10:18:38.641Z,24.23
2023-01-29T10:21:20.884Z,22.58
2023-01-29T10:23:52.258Z,23.77
2023-01-29T10:26:24.804Z,18.50
2023-01-29T10:28:56.261Z,21.73
2023-01-29T10:31:35.280Z,18.63
2023-01-29T10:34:13.122Z,17.88
2023-01-29T10:36:45.062Z,17.15
2023-01-29T10:39:17.956Z,17.60
2023-01-29T10:42:03.509Z,19.23
2023-01-29T10:44:45.481Z,20.58
2023-01-29T10:47:41.708Z,19.83
2023-01-29T10:50:22.541Z,15.85
2023-01-29T10:53:06.213Z,17.50
2023-01-29T10:55:45.571Z,22.58
2023-01-29T10:58:27.693Z,19.27
2023-01-29T11:00:55.679Z,18.38
2023-01-29T11:03:28.313Z,23.90
2023-01-29T11:06:04.335Z,16.58
2023-01-29T11:08:38.563Z,25.50
2023-01-29T11:11:10.473Z,16.92
2023-01-29T11:13:44.024Z,26.73
2023-01-29T11:16:12.886Z,25.98
2023-01-29T11:18:58.754Z,19.45
2023-01-29T11:21:30.468Z,22.00
2023-01-29T11:24:12.700Z,22.38
2023-01-29T11:26:43.486Z,29.63
2023-01-29T11:29:35.988Z,25.52
2023-01-29T11:32:07.645Z,20.50
2023-01-29T11:34:35.764Z,16.38
2023-01-29T11:37:16.308Z,21.85
2023-01-29T11:39:47.240Z,18.55
2023-01-29T11:42:21.979Z,21.73
2023-01-29T11:44:50.794Z,24.08
2023-01-29T11:47:21.418Z,24.23
2023-01-29T11:49:51.749Z,25.13
2023-01-29T11:52:24.185Z,21.10
2023-01-29T11:54:57.134Z,20.27
2023-01-29T11:57:32.042Z,23.20
2023-01-29T12:00:04.275Z,20.42
2023-01-29T12:02:38.257Z,25.77
2023-01-29T12:05:15.726Z,17.58
2023-01-29T12:07:49.084Z,28.27
2023-01-29T12:10:32.846Z,23.88
2023-01-29T12:13:19.216Z,28.33
2023-01-29T12:15:48.873Z,22.98
2023-01-29T12:18:26.070Z,20.67
2023-01-29T12:20:58.683Z,20.92
2023-01-29T12:23:37.239Z,22.38
2023-01-29T12:26:10.694Z,19.25
2023-01-29T12:28:47.999Z,19.63
2023-01-29T12:31:28.543Z,25.65
2023-01-29T12:34:03.475Z,22.20
2023-01-29T12:36:38.344Z,20.27
2023-01-29T12:39:11.699Z,21.48
2023-01-29T12:41:46.163Z,19.98
2023-01-29T12:44:18.226Z,22.85
2023-01-29T12:46:50.735Z,21.17
2023-01-29T12:49:24.421Z,25.02
2023-01-29T12:52:00.269Z,23.05
2023-01-29T12:54:36.479Z,24.42
2023-01-29T12:57:09.660Z,20.65
2023-01-29T12:59:43.217Z,26.20
2023-01-29T13:02:24.960Z,25.77
2023-01-29T13:04:59.063Z,27.17
2023-01-29T13:07:32.148Z,27.20
2023-01-29T13:10:08.739Z,22.80
2023-01-29T13:12:38.295Z,29.30
2023-01-29T13:15:18.610Z,25.13
2023-01-29T13:17:52.155Z,30.20
2023-01-29T13:20:25.753Z,24.05
2023-01-29T13:22:57.577Z,27.40
2023-01-29T13:25:27.348Z,24.63
2023-01-29T13:27:56.565Z,32.38
2023-01-29T13:30:31.088Z,27.25
2023-01-29T13:33:10.483Z,30.27
2023-01-29T13:35:42.696Z,23.50
2023-01-29T13:38:25.654Z,20.08
2023-01-29T13:41:00.436Z,23.73
2023-01-29T13:43:29.170Z,20.73
2023-01-29T13:45:57.240Z,25.98
2023-01-29T13:48:28.528Z,27.58
2023-01-29T13:50:58.666Z,31.08
2023-01-29T13:53:30.632Z,23.00
2023-01-29T13:56:31.326Z,24.33
2023-01-29T13:58:59.888Z,25.05
2023-01-29T14:02:04.119Z,27.20
2023-01-29T14:04:34.203Z,23.17
2023-01-29T14:07:04.552Z,28.17
2023-01-29T14:10:03.435Z,31.75
2023-01-29T14:12:40.021Z,27.38
2023-01-29T14:15:23.309Z,27.25
2023-01-29T14:18:04.073Z,30.75
2023-01-29T14:20:45.430Z,26.33
2023-01-29T14:23:25.729Z,29.50
2023-01-29T14:25:54.093Z,23.45
2023-01-29T14:28:27.302Z,25.50
2023-01-29T14:30:56.624Z,22.10
2023-01-29T14:33:28.520Z,30.80
2023-01-29T14:35:59.618Z,25.50
2023-01-29T14:38:29.702Z,25.90
2023-01-29T14:41:08.651Z,31.85
2023-01-29T14:43:38.282Z,31.25
2023-01-29T14:46:44.572Z,25.35
2023-01-29T14:49:12.945Z,26.75
2023-01-29T14:51:45.803Z,26.75
2023-01-29T14:54:24.200Z,23.85
2023-01-29T14:57:00.504Z,30.33
2023-01-29T14:59:37.480Z,26.05
2023-01-29T15:02:16.831Z,24.83
2023-01-29T15:04:49.636Z,27.23
2023-01-29T15:07:28.978Z,33.42
2023-01-29T15:10:21.063Z,28.73
2023-01-29T15:12:55.423Z,28.85
2023-01-29T15:15:34.693Z,23.13
2023-01-29T15:18:07.029Z,25.88
2023-01-29T15:20:37.386Z,23.00
2023-01-29T15:23:23.867Z,26.50
2023-01-29T15:25:55.419Z,27.23
2023-01-29T15:28:23.916Z,28.65
2023-01-29T15:30:57.117Z,33.58
2023-01-29T15:33:25.907Z,25.75
2023-01-29T15:36:06.916Z,28.00
2023-01-29T15:38:38.445Z,25.88
2023-01-29T15:41:19.680Z,23.88
2023-01-29T15:43:49.637Z,28.17
2023-01-29T15:46:26.471Z,26.27
2023-01-29T15:48:56.132Z,23.83
2023-01-29T15:51:27.069Z,29.08
2023-01-29T15:53:57.568Z,23.52
2023-01-29T15:56:29.593Z,30.02
2023-01-29T15:59:00.528Z,28.45
2023-01-29T16:01:30.945Z,33.40
2023-01-29T16:04:02.509Z,29.38
2023-01-29T16:06:35.159Z,32.13
2023-01-29T16:09:06.137Z,31.77
2023-01-29T16:11:35.589Z,20.58
2023-01-29T16:14:05.164Z,21.80
2023-01-29T16:16:35.041Z,26.52
2023-01-29T16:19:15.762Z,36.03
2023-01-29T16:21:46.180Z,24.95
2023-01-29T16:24:22.363Z,26.50
2023-01-29T16:26:53.143Z,25.00
2023-01-29T16:29:23.713Z,28.83
2023-01-29T16:32:00.702Z,26.55
2023-01-29T16:34:33.939Z,25.73
2023-01-29T16:37:05.550Z,24.95
2023-01-29T16:39:37.822Z,25.95
2023-01-29T16:42:25.877Z,25.27
2023-01-29T16:45:26.984Z,23.20
2023-01-29T16:48:03.913Z,18.80
2023-01-29T16:50:40.739Z,21.48
2023-01-29T16:53:22.114Z,25.33
2023-01-29T16:55:53.428Z,28.45
2023-01-29T16:58:26.035Z,26.35
2023-01-29T17:00:57.954Z,23.83
2023-01-29T17:03:29.320Z,25.48
2023-01-29T17:05:58.127Z,23.25
2023-01-29T17:08:28.836Z,28.90
2023-01-29T17:10:57.542Z,19.85
2023-01-29T17:13:29.877Z,22.58
2023-01-29T17:16:02.918Z,29.38
2023-01-29T17:18:32.905Z,24.55
2023-01-29T17:21:01.155Z,27.80
2023-01-29T17:23:29.558Z,24.90
2023-01-29T17:25:58.513Z,27.00
2023-01-29T17:28:28.079Z,29.20
2023-01-29T17:31:05.896Z,25.20
2023-01-29T17:33:38.834Z,32.35
2023-01-29T17:36:12.099Z,25.30
2023-01-29T17:38:41.104Z,26.80
2023-01-29T17:41:14.493Z,28.60
2023-01-29T17:43:44.235Z,25.58
2023-01-29T17:46:15.499Z,32.47
2023-01-29T17:48:46.227Z,26.10
2023-01-29T17:51:16.891Z,28.30
2023-01-29T17:53:47.172Z,21.25
2023-01-29T17:56:18.047Z,24.63
2023-01-29T17:58:46.288Z,23.00
2023-01-29T18:01:14.521Z,22.90
2023-01-29T18:03:42.693Z,27.55
2023-01-29T18:06:21.527Z,33.97
2023-01-29T18:08:50.109Z,30.10
2023-01-29T18:11:18.149Z,34.38
2023-01-29T18:13:46.455Z,31.27
2023-01-29T18:16:14.601Z,24.20
2023-01-29T18:18:43.026Z,23.10
2023-01-29T18:21:12.624Z,33.47
2023-01-29T18:23:41.141Z,27.73
2023-01-29T18:26:12.253Z,40.53
2023-01-29T18:28:40.558Z,28.67
2023-01-29T18:31:08.970Z,37.38
2023-01-29T18:33:37.746Z,29.13
2023-01-29T18:36:06.778Z,22.48
2023-01-29T18:38:36.391Z,28.92
2023-01-29T18:41:06.003Z,27.60
2023-01-29T18:43:34.237Z,29.60
2023-01-29T18:46:02.523Z,27.00
2023-01-29T18:48:31.135Z,23.38
2023-01-29T18:50:59.512Z,21.70
2023-01-29T18:53:28.042Z,31.85
2023-01-29T18:55:58.686Z,27.13
2023-01-29T18:58:35.330Z,24.73
2023-01-29T19:01:09.417Z,28.13
2023-01-29T19:03:38.167Z,22.67
2023-01-29T19:06:07.949Z,21.58
2023-01-29T19:08:36.263Z,24.58
2023-01-29T19:11:08.334Z,19.02
2023-01-29T19:13:38.118Z,24.85
2023-01-29T19:16:09.195Z,24.67
2023-01-29T19:18:37.593Z,27.08
2023-01-29T19:21:10.167Z,21.30
2023-01-29T19:23:38.321Z,22.88
2023-01-29T19:26:08.489Z,29.33
2023-01-29T19:28:36.980Z,25.25
2023-01-29T19:31:05.395Z,27.50
2023-01-29T19:33:33.913Z,27.40
2023-01-29T19:36:02.834Z,28.98
2023-01-29T19:38:33.667Z,22.23
2023-01-29T19:41:01.851Z,24.20
2023-01-29T19:43:31.777Z,22.20
2023-01-29T19:46:01.584Z,18.50
2023-01-29T19:48:29.880Z,24.35
2023-01-29T19:51:00.355Z,19.75
2023-01-29T19:53:30.068Z,19.73
2023-01-29T19:55:59.427Z,21.35
2023-01-29T19:58:27.726Z,17.83
2023-01-29T20:00:58.595Z,17.30
2023-01-29T20:03:27.987Z,16.27
2023-01-29T20:05:56.063Z,15.05
2023-01-29T20:08:24.955Z,18.23
2023-01-29T20:10:53.401Z,21.27
2023-01-29T20:13:21.483Z,17.52
2023-01-29T20:15:51.251Z,11.45
2023-01-29T20:18:20.961Z,27.70
2023-01-29T20:20:53.185Z,14.50
2023-01-29T20:23:36.269Z,16.00
2023-01-29T20:26:06.602Z,13.77
2023-01-29T20:28:35.841Z,15.98
2023-01-29T20:31:04.839Z,10.30
2023-01-29T20:33:36.988Z,17.17
2023-01-29T20:36:09.206Z,12.07
2023-01-29T20:38:37.581Z,10.32
2023-01-29T20:41:07.623Z,14.50
2023-01-29T20:43:36.536Z,11.98
2023-01-29T20:46:06.477Z,15.50
2023-01-29T20:48:36.336Z,15.32
2023-01-29T20:51:06.642Z,13.30
2023-01-29T20:53:34.898Z,11.70
2023-01-29T20:56:04.765Z,12.80
2023-01-29T20:58:33.434Z,13.82
2023-01-29T21:01:01.809Z,13.27
2023-01-29T21:03:30.655Z,12.02
2023-01-29T21:06:00.197Z,8.90
2023-01-29T21:08:28.900Z,13.93
2023-01-29T21:10:57.078Z,13.93
2023-01-29T21:13:25.153Z,16.00
2023-01-29T21:15:54.001Z,15.85
2023-01-29T21:18:22.638Z,12.85
2023-01-29T21:20:51.331Z,14.68
2023-01-29T21:23:20.871Z,12.18
2023-01-29T21:25:49.182Z,19.40
2023-01-29T21:28:17.605Z,11.15
2023-01-29T21:30:46.607Z,19.45
2023-01-29T21:33:14.714Z,15.63
2023-01-29T21:35:45.141Z,14.43
2023-01-29T21:38:13.138Z,15.07
2023-01-29T21:40:42.468Z,11.77
2023-01-29T21:43:12.805Z,15.52
2023-01-29T21:45:41.811Z,14.35
2023-01-29T21:48:11.002Z,10.45
2023-01-29T21:50:39.501Z,16.60
2023-01-29T21:53:07.878Z,13.38
2023-01-29T21:55:36.145Z,16.15
2023-01-29T21:58:05.591Z,11.55
2023-01-29T22:00:34.110Z,14.55
2023-01-29T22:03:02.776Z,12.57
2023-01-29T22:05:30.852Z,13.88
2023-01-29T22:07:59.392Z,13.57
2023-01-29T22:10:28.642Z,17.48
2023-01-29T22:12:56.861Z,12.88
2023-01-29T22:15:26.439Z,16.90
2023-01-29T22:17:54.500Z,16.23
2023-01-29T22:20:29.764Z,15.95
2023-01-29T22:23:00.517Z,15.82
2023-01-29T22:25:29.241Z,14.45
2023-01-29T22:27:57.489Z,16.20
2023-01-29T22:30:27.630Z,16.77
2023-01-29T22:32:56.309Z,21.35
2023-01-29T22:35:24.503Z,14.15
2023-01-29T22:37:52.471Z,21.35
2023-01-29T22:40:21.157Z,14.82
2023-01-29T22:42:49.584Z,16.42
2023-01-29T22:45:18.087Z,13.20
2023-01-29T22:47:47.848Z,14.00
2023-01-29T22:50:16.311Z,18.13
2023-01-29T22:52:53.617Z,20.02
2023-01-29T22:55:21.954Z,20.98
2023-01-29T22:57:50.867Z,16.00
2023-01-29T23:00:20.164Z,15.35
2023-01-29T23:02:50.171Z,18.52
2023-01-29T23:05:18.920Z,13.70
2023-01-29T23:07:47.357Z,20.00
2023-01-29T23:10:17.044Z,17.48
2023-01-29T23:12:45.479Z,19.55
2023-01-29T23:15:13.896Z,16.15
2023-01-29T23:17:41.862Z,16.40
2023-01-29T23:20:12.907Z,17.48
2023-01-29T23:22:40.970Z,15.68
2023-01-29T23:25:09.798Z,11.73
2023-01-29T23:27:36.804Z,15.07
2023-01-29T23:30:06.679Z,21.02
2023-01-29T23:32:35.480Z,15.68
2023-01-29T23:35:03.727Z,14.32
2023-01-29T23:37:33.122Z,13.73
2023-01-29T23:40:01.095Z,15.82
2023-01-29T23:42:29.299Z,17.63
2023-01-29T23:44:57.430Z,13.40
2023-01-29T23:47:25.743Z,14.90
2023-01-29T23:49:53.906Z,15.50
2023-01-29T23:52:22.050Z,16.90
2023-01-29T23:54:51.449Z,13.43
2023-01-29T23:57:19.503Z,16.83
2023-01-29T23:59:47.685Z,17.98
